x

Boston 16 Nm East Of Boston, Ma (44013) Wave Buoy

5:50pm - Sat 24th Jun 2017 All times are EDT. -4 hours from GMT.

  • Sig Wave height 1.0ft
  • Swell Direction
  • Peak Period 8s
  • Average Period 5s
  • Wind
    13mph, 16mph gusts
  • Sea Temp 59°f
  • 空気 Temp 70°f
  • Sea Pressure 1004.4mb
  • Boston 16 Nm East Of Boston, Ma
  • Boston 16 Nm East Of Boston, Ma

More Historic Weather Station data

Upgrade to MSW Pro to gain access to the past 30 days of data for over 8000 Wavebouys and Weather Stations around the globe.

Join Pro

Comparision Forecast

View Surf forecast
   
Sat 06/24 5:50pm 1ft 8s 5s 13 16 mph 1004.4mb 59f 70f
4:50pm 1ft 8s 4s 9 11 mph 1003.6mb 60f 68f
3:50pm 1ft 8s 4s 11 11 mph 1002.5mb 59f 73f
2:50pm 1ft 9s 4s 11 11 mph 1002mb 59f 68f
1:50pm 1.3ft 5s 4s 9 9 mph 1001mb 58f 67f
12:50pm 1.3ft 4s 4s 9 9 mph 1001mb 57f 62f
11:50am 1.6ft 5s 4s 9 9 mph 1001.1mb 57f 63f
10:50am 2ft 5s 4s 7 9 mph 1000.8mb 57f 65f
9:50am 1.6ft 5s 4s 11 13 mph 1000.9mb 57f 64f
8:50am 1.6ft 6s 4s 11 11 mph 1000.7mb 57f 64f
7:50am 1.6ft 7s 4s 13 16 mph 1000.2mb 57f 64f
6:50am 1.6ft 7s 4s 11 11 mph 1000.4mb 57f 64f
5:50am 1.6ft 7s 4s 9 11 mph 1000.5mb 57f 63f
4:50am 1.6ft 3s 4s 9 11 mph 1000.3mb 57f 64f
3:50am 1.6ft 3s 3s 13 16 mph 1000mb 57f 63f
2:50am 1.6ft 3s 4s 9 11 mph 1000.6mb 58f 62f
1:50am 1.6ft 4s 4s 11 11 mph 1001.4mb 58f 64f
12:50am 2ft 4s 4s 11 13 mph 1001.8mb 58f 64f
Fri 06/23 11:50pm 2ft 5s 4s 11 11 mph 1002.5mb 59f 64f
10:50pm 2.5ft 4s 4s 11 13 mph 1002.7mb 59f 64f
9:50pm 2ft 4s 4s 16 18 mph 1002.7mb 60f 65f
8:50pm 2.5ft 4s 3s 13 16 mph 1002.7mb 60f 65f
7:50pm 2ft 3s 3s 18 20 mph 1002.6mb 60f 68f
6:50pm 1.6ft 3s 3s 16 18 mph 1002.8mb 60f 68f
5:50pm 2ft 4s 3s 16 18 mph 1003.2mb 60f 65f
4:50pm 2ft 4s 3s 16 18 mph 1004mb 60f 65f
3:50pm 2ft 3s 3s 16 18 mph 1004.6mb 60f 67f
2:50pm 1.6ft 3s 3s 16 18 mph 1005.2mb 60f 66f
1:50pm 1.3ft 3s 3s 16 18 mph 1005.5mb 60f 66f
12:50pm 1.3ft 9s 3s 11 13 mph 1006.7mb 60f 64f
11:50am 1.3ft 3s 4s 11 11 mph 1007.5mb 59f 64f
10:50am 1.3ft 5s 4s 9 11 mph 1008.2mb 59f 62f
9:50am 1ft 5s  -  9 11 mph 1008.7mb 59f 61f
8:50am 1ft 5s 4s 9 11 mph 1009.1mb 59f 62f
7:50am 1ft 5s 4s 9 9 mph 1009.4mb 59f 63f
6:50am 1ft 6s 4s 7 7 mph 1009.5mb 60f 62f
5:50am 0.7ft  -  5s 7 9 mph 1009.3mb 60f 61f
4:50am 0.7ft  -  5s 9 9 mph 1009.6mb 60f 63f
3:50am 1ft 7s 5s 7 9 mph 1009.6mb 60f 63f
2:50am 1ft 7s 5s 7 7 mph 1010.4mb 61f 64f
1:50am 1ft 9s 5s 7 9 mph 1011mb 60f 65f
12:50am 1ft 10s 5s 7 9 mph 1011.6mb 59f 63f
Thu 06/22 11:50pm 1ft 10s 5s 9 9 mph 1011.9mb 59f 64f
10:50pm 1.3ft 5s 5s 9 9 mph 1011.9mb 60f 65f
9:50pm 1.3ft 5s 5s 9 11 mph 1012.1mb 59f 66f
8:50pm 1.3ft 5s  -  9 11 mph 1011.6mb 60f 66f
7:50pm 1.3ft 5s 5s 7 7 mph 1011.5mb 60f 64f
6:50pm 1.3ft 6s 5s 7 7 mph 1011.2mb 60f 64f
5:50pm 1ft 6s 5s 9 11 mph 1011.3mb 59f 64f
4:50pm 1ft 6s 4s 11 13 mph 1012.1mb 59f 65f
3:50pm 1ft 7s 5s 9 11 mph 1012.3mb 59f 65f
2:50pm 1ft 7s 5s 11 11 mph 1012.7mb 60f 64f
1:50pm 1ft 8s 5s 7 7 mph 1013.4mb 59f 65f
12:50pm 1ft 8s 5s 4 7 mph 1013.7mb 59f 68f
11:50am 1ft 7s 5s 2 2 mph 1014.4mb 60f 67f
10:50am 1ft 8s 5s 4 4 mph 1014.3mb 59f 65f
9:50am 1.3ft 6s 5s 4 4 mph 1015mb 58f 62f
8:50am 1.3ft 5s 5s 9 9 mph 1015.1mb 58f 61f
7:50am 1.3ft 6s 6s 7 9 mph 1014.8mb 57f 60f
6:50am 1.3ft 6s 6s 7 9 mph 1014.3mb 57f 60f
5:50am 1ft 6s 6s 9 9 mph 1014.1mb 57f 60f
4:50am 1ft 6s 6s 7 9 mph 1013.4mb 57f 60f
3:50am 1ft 7s 6s 7 7 mph 1013mb 57f 60f
2:50am 1ft 8s 6s 7 7 mph 1012.6mb 57f 60f
1:50am 1ft 8s 5s 9 9 mph 1012.8mb 57f 61f
12:50am 1ft 8s 5s 7 7 mph 1012.4mb 57f 61f
Wed 06/21 11:50pm 1.3ft 7s 4s 9 9 mph 1012mb 57f 62f
10:50pm 1.3ft 8s 4s 7 7 mph 1011.7mb 57f 63f
9:50pm 1.6ft 8s 4s 7 9 mph 1011.4mb 57f 63f
8:50pm 1.6ft 5s 4s 9 11 mph 1010.4mb 58f 64f
7:50pm 1.6ft 6s 4s 11 11 mph 1009.6mb 58f 64f
6:50pm 1.6ft 7s 5s 13 13 mph 1009.1mb 59f 67f
5:50pm 1.6ft 7s 4s 11 11 mph 1008.7mb 60f 69f
4:50pm 1.3ft 6s 4s 9 11 mph 1008.7mb 60f 68f
3:50pm 1.3ft 7s 4s 11 13 mph 1008.6mb 60f 70f
2:50pm 1.3ft 7s 4s 9 11 mph 1009mb 60f 68f
1:50pm 1.3ft 7s 5s 11 13 mph 1009.3mb 61f 69f
12:50pm 1ft 8s 5s 11 11 mph 1009.7mb 61f 68f
11:50am 1.3ft 8s 5s 9 9 mph 1010.3mb 62f 68f
10:50am 1.3ft 8s 5s 4 7 mph 1010.9mb 60f 65f
9:50am 1.3ft 8s 5s 7 9 mph 1011.2mb 60f 65f
8:50am 1.6ft 5s 5s 7 9 mph 1011.7mb 59f 61f
7:50am 1.6ft 6s 5s 7 9 mph 1011.7mb 57f 61f
6:50am 1.6ft 6s 5s 9 9 mph 1012.1mb 57f 62f
5:50am 1.6ft 6s 4s 9 9 mph 1012.2mb 57f 62f
4:50am 1.6ft 7s 5s 9 11 mph 1012mb 57f 61f
3:50am 1.3ft 7s 5s 9 11 mph 1012mb 57f 61f
2:50am 1.3ft 8s 5s 7 7 mph 1012.3mb 57f 61f
1:50am 1.3ft 14s 5s 9 9 mph 1012.6mb 58f 63f
12:50am 1.3ft 8s 5s 7 7 mph 1012.8mb 58f 63f
Tue 06/20 11:50pm 1.3ft 15s 5s 7 9 mph 1012.8mb 59f 64f
10:50pm 1.6ft 14s 4s 11 11 mph 1012.6mb 59f 70f